sensor_id;sensor_type;location;lat;lon;timestamp;pressure;altitude;pressure_sealevel;temperature
68440;BMP180;55421;51.600;5.718;2023-04-19T00:01:09;219991.59;;;9.90
68440;BMP180;55421;51.600;5.718;2023-04-19T00:03:36;220005.59;;;9.90
68440;BMP180;55421;51.600;5.718;2023-04-19T00:06:03;220014.80;;;9.90
68440;BMP180;55421;51.600;5.718;2023-04-19T00:08:29;220018.00;;;9.96
68440;BMP180;55421;51.600;5.718;2023-04-19T00:10:56;220014.80;;;9.90
68440;BMP180;55421;51.600;5.718;2023-04-19T00:13:22;220005.59;;;9.90
68440;BMP180;55421;51.600;5.718;2023-04-19T00:15:48;220001.80;;;9.90
68440;BMP180;55421;51.600;5.718;2023-04-19T00:18:15;219994.80;;;9.90
68440;BMP180;55421;51.600;5.718;2023-04-19T00:20:41;219997.00;;;9.90
68440;BMP180;55421;51.600;5.718;2023-04-19T00:23:08;220001.80;;;9.90
68440;BMP180;55421;51.600;5.718;2023-04-19T00:25:34;220020.20;;;9.96
68440;BMP180;55421;51.600;5.718;2023-04-19T00:28:01;220026.59;;;10.00
68440;BMP180;55421;51.600;5.718;2023-04-19T00:30:27;220031.41;;;10.00
68440;BMP180;55421;51.600;5.718;2023-04-19T00:32:54;220025.00;;;10.00
68440;BMP180;55421;51.600;5.718;2023-04-19T00:35:20;220018.59;;;9.98
68440;BMP180;55421;51.600;5.718;2023-04-19T00:37:47;220013.20;;;9.96
68440;BMP180;55421;51.600;5.718;2023-04-19T00:40:13;220094.41;;;9.92
68440;BMP180;55421;51.600;5.718;2023-04-19T00:42:41;220013.20;;;9.92
68440;BMP180;55421;51.600;5.718;2023-04-19T00:45:08;220264.80;;;9.94
68440;BMP180;55421;51.600;5.718;2023-04-19T00:47:35;220659.41;;;9.94
68440;BMP180;55421;51.600;5.718;2023-04-19T00:50:03;221593.20;;;9.98
68440;BMP180;55421;51.600;5.718;2023-04-19T00:52:32;222555.41;;;9.94
68440;BMP180;55421;51.600;5.718;2023-04-19T00:55:00;223087.00;;;9.98
68440;BMP180;55421;51.600;5.718;2023-04-19T00:57:28;223869.20;;;10.00
68440;BMP180;55421;51.600;5.718;2023-04-19T00:59:56;223990.41;;;9.98
68440;BMP180;55421;51.600;5.718;2023-04-19T01:02:23;223816.00;;;9.96
68440;BMP180;55421;51.600;5.718;2023-04-19T01:04:50;223572.41;;;9.90
68440;BMP180;55421;51.600;5.718;2023-04-19T01:07:18;227161.00;;;9.90
68440;BMP180;55421;51.600;5.718;2023-04-19T01:09:45;228948.20;;;9.90
68440;BMP180;55421;51.600;5.718;2023-04-19T01:12:11;229081.20;;;9.90
68440;BMP180;55421;51.600;5.718;2023-04-19T01:14:39;231883.00;;;9.96
68440;BMP180;55421;51.600;5.718;2023-04-19T01:17:06;233477.00;;;10.00
68440;BMP180;55421;51.600;5.718;2023-04-19T01:19:34;237033.59;;;10.00
68440;BMP180;55421;51.600;5.718;2023-04-19T01:22:01;147047.80;;;10.00
68440;BMP180;55421;51.600;5.718;2023-04-19T01:24:29;8033.40;;;10.00
68440;BMP180;55421;51.600;5.718;2023-04-19T01:26:56;12641.00;;;10.02
68440;BMP180;55421;51.600;5.718;2023-04-19T01:29:23;20483.00;;;10.10
68440;BMP180;55421;51.600;5.718;2023-04-19T01:31:49;31428.20;;;10.10
68440;BMP180;55421;51.600;5.718;2023-04-19T01:34:19;40062.60;;;10.10
68440;BMP180;55421;51.600;5.718;2023-04-19T01:36:45;47020.80;;;10.10
68440;BMP180;55421;51.600;5.718;2023-04-19T01:39:12;52810.40;;;10.10
68440;BMP180;55421;51.600;5.718;2023-04-19T01:41:38;59715.60;;;10.10
68440;BMP180;55421;51.600;5.718;2023-04-19T01:44:04;64119.40;;;10.12
68440;BMP180;55421;51.600;5.718;2023-04-19T01:46:31;68547.20;;;10.20
68440;BMP180;55421;51.600;5.718;2023-04-19T01:48:57;72641.80;;;10.20
68440;BMP180;55421;51.600;5.718;2023-04-19T01:51:24;74389.40;;;10.20
68440;BMP180;55421;51.600;5.718;2023-04-19T01:53:51;81609.60;;;10.20
68440;BMP180;55421;51.600;5.718;2023-04-19T01:56:19;81208.40;;;10.20
68440;BMP180;55421;51.600;5.718;2023-04-19T01:58:47;83587.80;;;10.20
68440;BMP180;55421;51.600;5.718;2023-04-19T02:01:13;82940.00;;;10.20
68440;BMP180;55421;51.600;5.718;2023-04-19T02:03:39;81025.80;;;10.18
68440;BMP180;55421;51.600;5.718;2023-04-19T02:06:12;83957.00;;;10.10
68440;BMP180;55421;51.600;5.718;2023-04-19T02:08:40;86817.00;;;10.10
68440;BMP180;55421;51.600;5.718;2023-04-19T02:11:12;88290.60;;;10.10
68440;BMP180;55421;51.600;5.718;2023-04-19T02:13:42;92327.20;;;10.10
68440;BMP180;55421;51.600;5.718;2023-04-19T02:16:09;91857.80;;;10.10
68440;BMP180;55421;51.600;5.718;2023-04-19T02:18:37;94116.40;;;10.10
68440;BMP180;55421;51.600;5.718;2023-04-19T02:21:06;96538.80;;;10.10
68440;BMP180;55421;51.600;5.718;2023-04-19T02:23:33;97856.00;;;10.10
68440;BMP180;55421;51.600;5.718;2023-04-19T02:26:01;98476.60;;;10.10
68440;BMP180;55421;51.600;5.718;2023-04-19T02:28:29;100403.00;;;10.20
68440;BMP180;55421;51.600;5.718;2023-04-19T02:30:57;101766.20;;;10.20
68440;BMP180;55421;51.600;5.718;2023-04-19T02:33:25;101003.20;;;10.20
68440;BMP180;55421;51.600;5.718;2023-04-19T02:35:52;100038.20;;;10.20
68440;BMP180;55421;51.600;5.718;2023-04-19T02:38:18;98199.00;;;10.20
68440;BMP180;55421;51.600;5.718;2023-04-19T02:40:45;97825.60;;;10.20
68440;BMP180;55421;51.600;5.718;2023-04-19T02:43:11;99238.00;;;10.20
68440;BMP180;55421;51.600;5.718;2023-04-19T02:45:38;98992.40;;;10.20
68440;BMP180;55421;51.600;5.718;2023-04-19T02:48:05;99899.20;;;10.20
68440;BMP180;55421;51.600;5.718;2023-04-19T02:50:32;95818.20;;;10.20
68440;BMP180;55421;51.600;5.718;2023-04-19T02:52:58;95195.00;;;10.18
68440;BMP180;55421;51.600;5.718;2023-04-19T02:55:25;97941.80;;;10.10
68440;BMP180;55421;51.600;5.718;2023-04-19T02:57:51;97866.00;;;10.10
68440;BMP180;55421;51.600;5.718;2023-04-19T03:00:17;98709.00;;;10.10
68440;BMP180;55421;51.600;5.718;2023-04-19T03:02:44;98190.40;;;10.10
68440;BMP180;55421;51.600;5.718;2023-04-19T03:05:10;98795.60;;;10.10
68440;BMP180;55421;51.600;5.718;2023-04-19T03:07:37;100390.40;;;10.00
68440;BMP180;55421;51.600;5.718;2023-04-19T03:10:04;100680.60;;;10.00
68440;BMP180;55421;51.600;5.718;2023-04-19T03:12:31;101131.40;;;10.00
68440;BMP180;55421;51.600;5.718;2023-04-19T03:14:57;98769.00;;;10.00
68440;BMP180;55421;51.600;5.718;2023-04-19T03:17:25;100951.60;;;10.00
68440;BMP180;55421;51.600;5.718;2023-04-19T03:19:52;100288.80;;;10.00
68440;BMP180;55421;51.600;5.718;2023-04-19T03:22:19;102206.00;;;10.00
68440;BMP180;55421;51.600;5.718;2023-04-19T03:24:45;102542.60;;;10.00
68440;BMP180;55421;51.600;5.718;2023-04-19T03:27:12;100988.20;;;10.00
68440;BMP180;55421;51.600;5.718;2023-04-19T03:29:38;99655.00;;;9.98
68440;BMP180;55421;51.600;5.718;2023-04-19T03:32:06;98497.60;;;9.92
68440;BMP180;55421;51.600;5.718;2023-04-19T03:34:32;97426.20;;;9.90
68440;BMP180;55421;51.600;5.718;2023-04-19T03:36:59;98993.60;;;9.90
68440;BMP180;55421;51.600;5.718;2023-04-19T03:39:25;101334.20;;;9.90
68440;BMP180;55421;51.600;5.718;2023-04-19T03:41:53;102867.00;;;9.90
68440;BMP180;55421;51.600;5.718;2023-04-19T03:44:19;102051.20;;;9.90
68440;BMP180;55421;51.600;5.718;2023-04-19T03:46:46;98893.00;;;9.90
68440;BMP180;55421;51.600;5.718;2023-04-19T03:49:13;97891.20;;;9.88
68440;BMP180;55421;51.600;5.718;2023-04-19T03:51:40;95906.80;;;9.80
68440;BMP180;55421;51.600;5.718;2023-04-19T03:54:06;93573.60;;;9.80
68440;BMP180;55421;51.600;5.718;2023-04-19T03:56:33;93722.80;;;9.80
68440;BMP180;55421;51.600;5.718;2023-04-19T03:58:59;94825.00;;;9.80
68440;BMP180;55421;51.600;5.718;2023-04-19T04:01:26;95760.40;;;9.70
68440;BMP180;55421;51.600;5.718;2023-04-19T04:03:53;91247.80;;;9.70
68440;BMP180;55421;51.600;5.718;2023-04-19T04:06:19;94480.20;;;9.70
68440;BMP180;55421;51.600;5.718;2023-04-19T04:08:46;95549.20;;;9.64
68440;BMP180;55421;51.600;5.718;2023-04-19T04:11:12;96190.40;;;9.60
68440;BMP180;55421;51.600;5.718;2023-04-19T04:13:39;96409.00;;;9.60
68440;BMP180;55421;51.600;5.718;2023-04-19T04:16:05;95026.20;;;9.50
68440;BMP180;55421;51.600;5.718;2023-04-19T04:18:32;92796.80;;;9.50
68440;BMP180;55421;51.600;5.718;2023-04-19T04:20:58;91559.80;;;9.40
68440;BMP180;55421;51.600;5.718;2023-04-19T04:23:25;90022.40;;;9.40
68440;BMP180;55421;51.600;5.718;2023-04-19T04:25:57;87847.40;;;9.30
68440;BMP180;55421;51.600;5.718;2023-04-19T04:28:27;87659.40;;;9.30
68440;BMP180;55421;51.600;5.718;2023-04-19T04:30:55;85943.80;;;9.20
68440;BMP180;55421;51.600;5.718;2023-04-19T04:33:27;81970.20;;;9.12
68440;BMP180;55421;51.600;5.718;2023-04-19T04:35:54;76542.00;;;9.10
68440;BMP180;55421;51.600;5.718;2023-04-19T04:38:22;77041.00;;;9.00
68440;BMP180;55421;51.600;5.718;2023-04-19T04:40:50;75730.80;;;9.00
68440;BMP180;55421;51.600;5.718;2023-04-19T04:43:24;74363.40;;;9.00
68440;BMP180;55421;51.600;5.718;2023-04-19T04:45:54;69298.60;;;8.90
68440;BMP180;55421;51.600;5.718;2023-04-19T04:48:23;64436.40;;;8.90
68440;BMP180;55421;51.600;5.718;2023-04-19T04:50:49;62499.60;;;8.90
68440;BMP180;55421;51.600;5.718;2023-04-19T04:53:16;64814.40;;;8.90
68440;BMP180;55421;51.600;5.718;2023-04-19T04:55:42;63036.40;;;8.90
68440;BMP180;55421;51.600;5.718;2023-04-19T04:58:08;61303.60;;;8.80
68440;BMP180;55421;51.600;5.718;2023-04-19T05:00:35;58635.00;;;8.80
68440;BMP180;55421;51.600;5.718;2023-04-19T05:03:02;59139.80;;;8.80
68440;BMP180;55421;51.600;5.718;2023-04-19T05:05:29;58447.00;;;8.80
68440;BMP180;55421;51.600;5.718;2023-04-19T05:07:55;57743.40;;;8.78
68440;BMP180;55421;51.600;5.718;2023-04-19T05:10:22;59074.20;;;8.70
68440;BMP180;55421;51.600;5.718;2023-04-19T05:12:48;62219.80;;;8.70
68440;BMP180;55421;51.600;5.718;2023-04-19T05:15:15;62322.60;;;8.70
68440;BMP180;55421;51.600;5.718;2023-04-19T05:17:41;61475.20;;;8.70
68440;BMP180;55421;51.600;5.718;2023-04-19T05:20:09;60332.60;;;8.70
68440;BMP180;55421;51.600;5.718;2023-04-19T05:22:36;59186.60;;;8.70
68440;BMP180;55421;51.600;5.718;2023-04-19T05:25:04;59449.40;;;8.70
68440;BMP180;55421;51.600;5.718;2023-04-19T05:27:31;61351.20;;;8.70
68440;BMP180;55421;51.600;5.718;2023-04-19T05:29:57;62070.40;;;8.76
68440;BMP180;55421;51.600;5.718;2023-04-19T05:32:24;60633.20;;;8.80
68440;BMP180;55421;51.600;5.718;2023-04-19T05:34:50;60600.80;;;8.80
68440;BMP180;55421;51.600;5.718;2023-04-19T05:37:17;59431.00;;;8.86
68440;BMP180;55421;51.600;5.718;2023-04-19T05:39:43;62267.20;;;8.90
68440;BMP180;55421;51.600;5.718;2023-04-19T05:42:10;53709.80;;;8.92
68440;BMP180;55421;51.600;5.718;2023-04-19T05:44:36;48635.40;;;9.00
68440;BMP180;55421;51.600;5.718;2023-04-19T05:47:04;44868.60;;;9.08
68440;BMP180;55421;51.600;5.718;2023-04-19T05:49:31;39775.80;;;9.10
68440;BMP180;55421;51.600;5.718;2023-04-19T05:51:58;28253.40;;;9.18
68440;BMP180;55421;51.600;5.718;2023-04-19T05:54:24;20033.20;;;9.20
68440;BMP180;55421;51.600;5.718;2023-04-19T05:56:51;9306.40;;;9.20
68440;BMP180;55421;51.600;5.718;2023-04-19T05:59:18;144995.41;;;9.20
68440;BMP180;55421;51.600;5.718;2023-04-19T06:01:45;232194.59;;;9.20
68440;BMP180;55421;51.600;5.718;2023-04-19T06:04:11;231669.59;;;9.30
68440;BMP180;55421;51.600;5.718;2023-04-19T06:06:38;225685.20;;;9.40
68440;BMP180;55421;51.600;5.718;2023-04-19T06:09:05;224025.00;;;9.48
68440;BMP180;55421;51.600;5.718;2023-04-19T06:11:32;222426.80;;;9.50
68440;BMP180;55421;51.600;5.718;2023-04-19T06:13:59;221237.59;;;9.50
68440;BMP180;55421;51.600;5.718;2023-04-19T06:16:26;220010.41;;;9.58
68440;BMP180;55421;51.600;5.718;2023-04-19T06:18:54;219822.20;;;9.60
68440;BMP180;55421;51.600;5.718;2023-04-19T06:21:21;219838.59;;;9.66
68440;BMP180;55421;51.600;5.718;2023-04-19T06:23:47;219846.20;;;9.70
68440;BMP180;55421;51.600;5.718;2023-04-19T06:26:13;219862.20;;;9.70
68440;BMP180;55421;51.600;5.718;2023-04-19T06:28:40;219874.59;;;9.70
68440;BMP180;55421;51.600;5.718;2023-04-19T06:31:06;219883.00;;;9.70
68440;BMP180;55421;51.600;5.718;2023-04-19T06:33:33;219894.20;;;9.76
68440;BMP180;55421;51.600;5.718;2023-04-19T06:35:59;219914.20;;;9.80
68440;BMP180;55421;51.600;5.718;2023-04-19T06:38:26;219950.80;;;9.80
68440;BMP180;55421;51.600;5.718;2023-04-19T06:40:52;219986.00;;;9.90
68440;BMP180;55421;51.600;5.718;2023-04-19T06:43:19;220021.80;;;10.00
68440;BMP180;55421;51.600;5.718;2023-04-19T06:45:47;220035.41;;;10.00
68440;BMP180;55421;51.600;5.718;2023-04-19T06:48:13;220046.59;;;10.00
68440;BMP180;55421;51.600;5.718;2023-04-19T06:50:40;220063.00;;;10.00
68440;BMP180;55421;51.600;5.718;2023-04-19T06:53:06;220076.59;;;10.10
68440;BMP180;55421;51.600;5.718;2023-04-19T06:55:33;220106.80;;;10.10
68440;BMP180;55421;51.600;5.718;2023-04-19T06:57:59;220133.20;;;10.20
68440;BMP180;55421;51.600;5.718;2023-04-19T07:00:26;220151.59;;;10.20
68440;BMP180;55421;51.600;5.718;2023-04-19T07:02:52;220175.20;;;10.20
68440;BMP180;55421;51.600;5.718;2023-04-19T07:05:19;220221.20;;;10.30
68440;BMP180;55421;51.600;5.718;2023-04-19T07:07:45;220251.80;;;10.40
68440;BMP180;55421;51.600;5.718;2023-04-19T07:10:12;220264.80;;;10.40
68440;BMP180;55421;51.600;5.718;2023-04-19T07:12:38;220286.00;;;10.40
68440;BMP180;55421;51.600;5.718;2023-04-19T07:15:05;220292.80;;;10.42
68440;BMP180;55421;51.600;5.718;2023-04-19T07:17:34;220310.00;;;10.50
68440;BMP180;55421;51.600;5.718;2023-04-19T07:20:03;220332.80;;;10.50
68440;BMP180;55421;51.600;5.718;2023-04-19T07:22:32;220349.20;;;10.50
68440;BMP180;55421;51.600;5.718;2023-04-19T07:24:59;220394.59;;;10.60
68440;BMP180;55421;51.600;5.718;2023-04-19T07:27:26;220415.00;;;10.70
68440;BMP180;55421;51.600;5.718;2023-04-19T07:29:52;220447.41;;;10.70
68440;BMP180;55421;51.600;5.718;2023-04-19T07:32:18;220480.59;;;10.80
68440;BMP180;55421;51.600;5.718;2023-04-19T07:34:46;220529.59;;;10.90
68440;BMP180;55421;51.600;5.718;2023-04-19T07:37:13;220556.41;;;10.90
68440;BMP180;55421;51.600;5.718;2023-04-19T07:39:39;220575.00;;;10.90
68440;BMP180;55421;51.600;5.718;2023-04-19T07:42:06;220585.41;;;11.00
68440;BMP180;55421;51.600;5.718;2023-04-19T07:44:33;220621.41;;;11.00
68440;BMP180;55421;51.600;5.718;2023-04-19T07:47:00;220654.59;;;11.10
68440;BMP180;55421;51.600;5.718;2023-04-19T07:49:26;220688.41;;;11.16
68440;BMP180;55421;51.600;5.718;2023-04-19T07:51:54;220705.59;;;11.20
68440;BMP180;55421;51.600;5.718;2023-04-19T07:54:21;220714.80;;;11.20
68440;BMP180;55421;51.600;5.718;2023-04-19T07:56:47;220746.00;;;11.28
68440;BMP180;55421;51.600;5.718;2023-04-19T07:59:14;220770.41;;;11.30
68440;BMP180;55421;51.600;5.718;2023-04-19T08:01:41;220808.20;;;11.40
68440;BMP180;55421;51.600;5.718;2023-04-19T08:04:08;220829.00;;;11.40
68440;BMP180;55421;51.600;5.718;2023-04-19T08:06:36;220849.20;;;11.40
68440;BMP180;55421;51.600;5.718;2023-04-19T08:09:03;220886.00;;;11.50
68440;BMP180;55421;51.600;5.718;2023-04-19T08:11:30;220916.00;;;11.56
68440;BMP180;55421;51.600;5.718;2023-04-19T08:13:56;220922.00;;;11.60
68440;BMP180;55421;51.600;5.718;2023-04-19T08:16:23;220940.00;;;11.60
68440;BMP180;55421;51.600;5.718;2023-04-19T08:18:49;220942.80;;;11.60
68440;BMP180;55421;51.600;5.718;2023-04-19T08:21:17;220962.00;;;11.60
68440;BMP180;55421;51.600;5.718;2023-04-19T08:23:44;221008.20;;;11.70
68440;BMP180;55421;51.600;5.718;2023-04-19T08:26:10;221056.00;;;11.80
68440;BMP180;55421;51.600;5.718;2023-04-19T08:28:37;221095.20;;;11.90
68440;BMP180;55421;51.600;5.718;2023-04-19T08:31:25;221144.41;;;11.98
68440;BMP180;55421;51.600;5.718;2023-04-19T08:33:51;221165.80;;;12.00
68440;BMP180;55421;51.600;5.718;2023-04-19T08:36:17;221188.59;;;12.00
68440;BMP180;55421;51.600;5.718;2023-04-19T08:38:44;221220.20;;;12.10
68440;BMP180;55421;51.600;5.718;2023-04-19T08:41:11;221257.41;;;12.18
68440;BMP180;55421;51.600;5.718;2023-04-19T08:43:42;221287.00;;;12.20
68440;BMP180;55421;51.600;5.718;2023-04-19T08:46:10;221286.59;;;12.20
68440;BMP180;55421;51.600;5.718;2023-04-19T08:48:39;221285.00;;;12.20
68440;BMP180;55421;51.600;5.718;2023-04-19T08:51:07;221289.41;;;12.20
68440;BMP180;55421;51.600;5.718;2023-04-19T08:53:35;221314.59;;;12.30
68440;BMP180;55421;51.600;5.718;2023-04-19T08:56:02;221342.20;;;12.30
68440;BMP180;55421;51.600;5.718;2023-04-19T08:58:30;221348.20;;;12.30
68440;BMP180;55421;51.600;5.718;2023-04-19T09:00:58;221383.41;;;12.40
68440;BMP180;55421;51.600;5.718;2023-04-19T09:03:25;221407.80;;;12.40
68440;BMP180;55421;51.600;5.718;2023-04-19T09:05:53;221448.20;;;12.50
68440;BMP180;55421;51.600;5.718;2023-04-19T09:08:37;221479.59;;;12.58
68440;BMP180;55421;51.600;5.718;2023-04-19T09:11:10;221502.80;;;12.60
68440;BMP180;55421;51.600;5.718;2023-04-19T09:13:37;221481.20;;;12.58
68440;BMP180;55421;51.600;5.718;2023-04-19T09:16:05;221494.80;;;12.60
68440;BMP180;55421;51.600;5.718;2023-04-19T09:18:53;221520.41;;;12.60
68440;BMP180;55421;51.600;5.718;2023-04-19T09:21:31;221540.80;;;12.70
68440;BMP180;55421;51.600;5.718;2023-04-19T09:23:59;221554.59;;;12.70
68440;BMP180;55421;51.600;5.718;2023-04-19T09:26:26;221599.00;;;12.78
68440;BMP180;55421;51.600;5.718;2023-04-19T09:29:00;221617.80;;;12.80
68440;BMP180;55421;51.600;5.718;2023-04-19T09:31:37;221586.59;;;12.70
68440;BMP180;55421;51.600;5.718;2023-04-19T09:34:17;221530.80;;;12.62
68440;BMP180;55421;51.600;5.718;2023-04-19T09:36:44;221524.00;;;12.60
68440;BMP180;55421;51.600;5.718;2023-04-19T09:39:12;221542.00;;;12.68
68440;BMP180;55421;51.600;5.718;2023-04-19T09:41:53;221572.20;;;12.70
68440;BMP180;55421;51.600;5.718;2023-04-19T09:44:20;221589.80;;;12.72
68440;BMP180;55421;51.600;5.718;2023-04-19T09:46:47;221617.80;;;12.80
68440;BMP180;55421;51.600;5.718;2023-04-19T09:49:22;221655.20;;;12.90
68440;BMP180;55421;51.600;5.718;2023-04-19T09:51:53;221701.20;;;12.96
68440;BMP180;55421;51.600;5.718;2023-04-19T09:54:24;221722.41;;;13.00
68440;BMP180;55421;51.600;5.718;2023-04-19T09:56:52;221755.80;;;13.06
68440;BMP180;55421;51.600;5.718;2023-04-19T09:59:19;221791.80;;;13.10
68440;BMP180;55421;51.600;5.718;2023-04-19T10:01:58;221796.20;;;13.10
68440;BMP180;55421;51.600;5.718;2023-04-19T10:04:26;221807.41;;;13.10
68440;BMP180;55421;51.600;5.718;2023-04-19T10:06:54;221866.00;;;13.20
68440;BMP180;55421;51.600;5.718;2023-04-19T10:09:21;221894.41;;;13.30
68440;BMP180;55421;51.600;5.718;2023-04-19T10:11:52;221929.80;;;13.32
68440;BMP180;55421;51.600;5.718;2023-04-19T10:14:23;221910.00;;;13.30
68440;BMP180;55421;51.600;5.718;2023-04-19T10:16:50;221917.41;;;13.30
68440;BMP180;55421;51.600;5.718;2023-04-19T10:19:19;221929.41;;;13.36
68440;BMP180;55421;51.600;5.718;2023-04-19T10:21:50;221919.80;;;13.32
68440;BMP180;55421;51.600;5.718;2023-04-19T10:24:17;221948.59;;;13.40
68440;BMP180;55421;51.600;5.718;2023-04-19T10:30:02;222008.59;;;13.50
68440;BMP180;55421;51.600;5.718;2023-04-19T10:32:39;222060.20;;;13.60
68440;BMP180;55421;51.600;5.718;2023-04-19T10:35:33;222112.20;;;13.70
68440;BMP180;55421;51.600;5.718;2023-04-19T10:38:05;222174.59;;;13.80
68440;BMP180;55421;51.600;5.718;2023-04-19T10:43:18;222157.41;;;13.80
68440;BMP180;55421;51.600;5.718;2023-04-19T10:45:46;222128.20;;;13.70
68440;BMP180;55421;51.600;5.718;2023-04-19T10:56:16;222255.59;;;13.90
68440;BMP180;55421;51.600;5.718;2023-04-19T11:01:35;222251.59;;;13.90
68440;BMP180;55421;51.600;5.718;2023-04-19T11:04:06;222278.80;;;14.00
68440;BMP180;55421;51.600;5.718;2023-04-19T11:06:33;222291.59;;;14.00
68440;BMP180;55421;51.600;5.718;2023-04-19T11:09:00;222315.20;;;14.02
68440;BMP180;55421;51.600;5.718;2023-04-19T11:11:35;222312.80;;;14.00
68440;BMP180;55421;51.600;5.718;2023-04-19T11:14:02;222340.41;;;14.10
68440;BMP180;55421;51.600;5.718;2023-04-19T11:16:30;222399.59;;;14.20
68440;BMP180;55421;51.600;5.718;2023-04-19T11:18:56;222402.80;;;14.20
68440;BMP180;55421;51.600;5.718;2023-04-19T11:21:22;222450.00;;;14.26
68440;BMP180;55421;51.600;5.718;2023-04-19T11:24:05;222461.59;;;14.30
68440;BMP180;55421;51.600;5.718;2023-04-19T11:26:33;222488.80;;;14.34
68440;BMP180;55421;51.600;5.718;2023-04-19T11:29:00;222488.80;;;14.36
68440;BMP180;55421;51.600;5.718;2023-04-19T11:31:27;222466.00;;;14.30
68440;BMP180;55421;51.600;5.718;2023-04-19T11:33:54;222491.59;;;14.34
68440;BMP180;55421;51.600;5.718;2023-04-19T11:36:20;222528.20;;;14.40
68440;BMP180;55421;51.600;5.718;2023-04-19T11:38:48;222582.20;;;14.50
68440;BMP180;55421;51.600;5.718;2023-04-19T11:41:14;222631.20;;;14.60
68440;BMP180;55421;51.600;5.718;2023-04-19T11:43:41;222666.00;;;14.62
68440;BMP180;55421;51.600;5.718;2023-04-19T11:46:12;222711.80;;;14.72
68440;BMP180;55421;51.600;5.718;2023-04-19T11:48:52;222757.00;;;14.80
68440;BMP180;55421;51.600;5.718;2023-04-19T11:51:19;222784.59;;;14.84
68440;BMP180;55421;51.600;5.718;2023-04-19T11:53:46;222831.20;;;15.00
68440;BMP180;55421;51.600;5.718;2023-04-19T11:56:13;222863.20;;;15.00
68440;BMP180;55421;51.600;5.718;2023-04-19T11:58:45;222897.41;;;15.10
68440;BMP180;55421;51.600;5.718;2023-04-19T12:01:18;222868.59;;;15.00
68440;BMP180;55421;51.600;5.718;2023-04-19T12:03:51;222891.41;;;15.08
68440;BMP180;55421;51.600;5.718;2023-04-19T12:06:27;222881.00;;;15.00
68440;BMP180;55421;51.600;5.718;2023-04-19T12:08:55;222847.59;;;15.00
68440;BMP180;55421;51.600;5.718;2023-04-19T12:11:25;222881.00;;;15.00
68440;BMP180;55421;51.600;5.718;2023-04-19T12:14:12;222861.59;;;15.00
68440;BMP180;55421;51.600;5.718;2023-04-19T12:16:39;222879.41;;;15.00
68440;BMP180;55421;51.600;5.718;2023-04-19T12:19:13;222891.80;;;15.10
68440;BMP180;55421;51.600;5.718;2023-04-19T12:21:43;222877.80;;;15.00
68440;BMP180;55421;51.600;5.718;2023-04-19T12:24:10;222879.41;;;15.00
68440;BMP180;55421;51.600;5.718;2023-04-19T12:26:52;222895.00;;;15.08
68440;BMP180;55421;51.600;5.718;2023-04-19T12:29:20;222861.00;;;15.00
68440;BMP180;55421;51.600;5.718;2023-04-19T12:31:46;222801.00;;;14.90
68440;BMP180;55421;51.600;5.718;2023-04-19T12:34:13;222800.59;;;14.90
68440;BMP180;55421;51.600;5.718;2023-04-19T12:36:39;222803.80;;;14.90
68440;BMP180;55421;51.600;5.718;2023-04-19T12:39:06;222847.59;;;15.00
68440;BMP180;55421;51.600;5.718;2023-04-19T12:41:33;222889.80;;;15.04
68440;BMP180;55421;51.600;5.718;2023-04-19T12:44:00;222936.59;;;15.10
68440;BMP180;55421;51.600;5.718;2023-04-19T12:46:26;222977.80;;;15.20
68440;BMP180;55421;51.600;5.718;2023-04-19T12:48:52;222969.80;;;15.20
68440;BMP180;55421;51.600;5.718;2023-04-19T12:51:19;222978.80;;;15.20
68440;BMP180;55421;51.600;5.718;2023-04-19T12:53:49;222961.80;;;15.20
68440;BMP180;55421;51.600;5.718;2023-04-19T12:56:16;222945.80;;;15.18
68440;BMP180;55421;51.600;5.718;2023-04-19T12:58:43;222943.00;;;15.14
68440;BMP180;55421;51.600;5.718;2023-04-19T13:01:09;222961.80;;;15.20
68440;BMP180;55421;51.600;5.718;2023-04-19T13:03:36;222949.00;;;15.20
68440;BMP180;55421;51.600;5.718;2023-04-19T13:06:03;222958.59;;;15.20
68440;BMP180;55421;51.600;5.718;2023-04-19T13:08:29;222905.41;;;15.10
68440;BMP180;55421;51.600;5.718;2023-04-19T13:10:56;222870.80;;;15.00
68440;BMP180;55421;51.600;5.718;2023-04-19T13:13:25;222856.20;;;15.00
68440;BMP180;55421;51.600;5.718;2023-04-19T13:15:51;222863.20;;;15.00
68440;BMP180;55421;51.600;5.718;2023-04-19T13:18:18;222882.59;;;15.02
68440;BMP180;55421;51.600;5.718;2023-04-19T13:20:48;222867.00;;;15.00
68440;BMP180;55421;51.600;5.718;2023-04-19T13:23:14;222902.59;;;15.10
68440;BMP180;55421;51.600;5.718;2023-04-19T13:25:41;222935.00;;;15.10
68440;BMP180;55421;51.600;5.718;2023-04-19T13:28:07;222922.20;;;15.10
68440;BMP180;55421;51.600;5.718;2023-04-19T13:30:33;222904.20;;;15.10
68440;BMP180;55421;51.600;5.718;2023-04-19T13:33:00;222923.80;;;15.10
68440;BMP180;55421;51.600;5.718;2023-04-19T13:35:26;222963.80;;;15.20
68440;BMP180;55421;51.600;5.718;2023-04-19T13:37:53;222961.80;;;15.20
68440;BMP180;55421;51.600;5.718;2023-04-19T13:40:19;222954.59;;;15.20
68440;BMP180;55421;51.600;5.718;2023-04-19T13:42:46;222944.59;;;15.20
68440;BMP180;55421;51.600;5.718;2023-04-19T13:45:12;222948.59;;;15.20
68440;BMP180;55421;51.600;5.718;2023-04-19T13:47:38;222976.20;;;15.20
68440;BMP180;55421;51.600;5.718;2023-04-19T13:50:06;222987.80;;;15.20
68440;BMP180;55421;51.600;5.718;2023-04-19T13:52:32;222987.80;;;15.20
68440;BMP180;55421;51.600;5.718;2023-04-19T13:54:59;222988.59;;;15.20
68440;BMP180;55421;51.600;5.718;2023-04-19T13:57:25;223050.80;;;15.30
68440;BMP180;55421;51.600;5.718;2023-04-19T13:59:52;223080.80;;;15.40
68440;BMP180;55421;51.600;5.718;2023-04-19T14:02:18;223125.00;;;15.50
68440;BMP180;55421;51.600;5.718;2023-04-19T14:04:45;223145.41;;;15.50
68440;BMP180;55421;51.600;5.718;2023-04-19T14:07:11;223096.41;;;15.40
68440;BMP180;55421;51.600;5.718;2023-04-19T14:09:38;223099.20;;;15.40
68440;BMP180;55421;51.600;5.718;2023-04-19T14:12:05;223087.20;;;15.40
68440;BMP180;55421;51.600;5.718;2023-04-19T14:14:34;223052.41;;;15.32
68440;BMP180;55421;51.600;5.718;2023-04-19T14:17:00;223037.20;;;15.30
68440;BMP180;55421;51.600;5.718;2023-04-19T14:19:27;223032.00;;;15.30
68440;BMP180;55421;51.600;5.718;2023-04-19T14:21:54;223050.80;;;15.30
68440;BMP180;55421;51.600;5.718;2023-04-19T14:24:20;223070.80;;;15.40